createdAt,value
2023-03-18T00:01:57.397Z,19.40
2023-03-18T00:07:01.106Z,19.35
2023-03-18T00:12:06.816Z,19.35
2023-03-18T00:17:10.571Z,19.23
2023-03-18T00:22:14.237Z,19.19
2023-03-18T00:27:19.511Z,19.17
2023-03-18T00:32:24.177Z,19.26
2023-03-18T00:37:28.250Z,19.32
2023-03-18T00:42:35.687Z,19.31
2023-03-18T00:47:39.325Z,19.31
2023-03-18T00:52:43.280Z,19.16
2023-03-18T00:57:48.581Z,18.99
2023-03-18T01:02:52.209Z,18.87
2023-03-18T01:07:55.840Z,18.78
2023-03-18T01:13:01.163Z,18.59
2023-03-18T01:18:04.934Z,18.41
2023-03-18T01:23:08.670Z,18.21
2023-03-18T01:28:14.764Z,17.88
2023-03-18T01:33:18.422Z,17.61
2023-03-18T01:38:22.160Z,17.51
2023-03-18T01:43:30.353Z,17.30
2023-03-18T01:48:39.172Z,17.17
2023-03-18T01:53:48.228Z,16.98
2023-03-18T01:58:57.037Z,16.80
2023-03-18T02:04:03.359Z,16.53
2023-03-18T02:09:08.156Z,16.35
2023-03-18T02:14:15.729Z,16.07
2023-03-18T02:19:33.588Z,15.94
2023-03-18T02:24:48.227Z,15.64
2023-03-18T02:29:55.669Z,15.31
2023-03-18T02:35:02.043Z,15.21
2023-03-18T02:40:17.762Z,15.07
2023-03-18T02:45:41.719Z,14.85
2023-03-18T02:50:45.453Z,14.76
2023-03-18T02:55:49.324Z,14.67
2023-03-18T03:00:54.645Z,14.71
2023-03-18T03:05:58.304Z,14.68
2023-03-18T03:11:01.973Z,14.66
2023-03-18T03:16:08.056Z,14.53
2023-03-18T03:21:12.969Z,14.43
2023-03-18T03:26:17.128Z,14.30
2023-03-18T03:31:22.503Z,14.20
2023-03-18T03:36:26.917Z,14.17
2023-03-18T03:41:30.582Z,14.06
2023-03-18T03:46:36.010Z,13.97
2023-03-18T03:51:39.663Z,13.89
2023-03-18T03:56:43.706Z,13.80
2023-03-18T04:01:49.002Z,13.71
2023-03-18T04:06:52.660Z,13.66
2023-03-18T04:11:56.321Z,13.71
2023-03-18T04:17:01.783Z,13.61
2023-03-18T04:22:05.486Z,13.48
2023-03-18T04:27:09.380Z,13.42
2023-03-18T04:32:15.231Z,13.10
2023-03-18T04:37:18.943Z,13.01
2023-03-18T04:42:22.603Z,12.93
2023-03-18T04:47:27.909Z,12.83
2023-03-18T04:52:32.298Z,12.63
2023-03-18T04:57:35.967Z,12.49
2023-03-18T05:02:41.604Z,12.43
2023-03-18T05:07:45.299Z,12.34
2023-03-18T05:12:49.012Z,12.14
2023-03-18T05:17:54.403Z,11.97
2023-03-18T05:22:58.187Z,11.83
2023-03-18T05:28:01.987Z,11.79
2023-03-18T05:33:07.378Z,11.70
2023-03-18T05:38:11.081Z,11.50
2023-03-18T05:43:14.733Z,11.49
2023-03-18T05:48:20.044Z,11.44
2023-03-18T05:53:23.702Z,11.46
2023-03-18T05:58:27.374Z,11.28
2023-03-18T06:03:32.704Z,11.19
2023-03-18T06:08:36.592Z,11.12
2023-03-18T06:13:40.248Z,10.99
2023-03-18T06:18:45.684Z,10.94
2023-03-18T06:23:49.306Z,10.91
2023-03-18T06:28:53.014Z,10.85
2023-03-18T06:34:01.232Z,10.69
2023-03-18T06:39:05.193Z,10.53
2023-03-18T06:44:08.890Z,10.53
2023-03-18T06:49:14.361Z,10.51
2023-03-18T06:54:18.006Z,10.45
2023-03-18T06:59:21.646Z,10.37
2023-03-18T07:04:27.106Z,10.33
2023-03-18T07:09:30.825Z,10.26
2023-03-18T07:14:34.586Z,10.17
2023-03-18T07:19:40.655Z,10.18
2023-03-18T07:24:44.483Z,10.14
2023-03-18T07:29:48.130Z,9.99
2023-03-18T07:34:53.409Z,9.88
2023-03-18T07:39:57.023Z,9.81
2023-03-18T07:45:00.861Z,9.78
2023-03-18T07:50:06.830Z,9.71
2023-03-18T07:55:11.356Z,9.68
2023-03-18T08:00:16.137Z,9.52
2023-03-18T08:05:21.500Z,9.43
2023-03-18T08:10:25.164Z,9.48
2023-03-18T08:15:28.819Z,9.47
2023-03-18T08:20:34.112Z,9.47
2023-03-18T08:25:37.732Z,9.42
2023-03-18T08:30:41.392Z,9.34
2023-03-18T08:35:48.135Z,9.32
2023-03-18T08:40:51.822Z,9.31
2023-03-18T08:45:55.590Z,9.20
2023-03-18T08:51:00.900Z,9.05
2023-03-18T08:56:04.649Z,9.07
2023-03-18T09:01:10.701Z,9.07
2023-03-18T09:06:17.559Z,9.05
2023-03-18T09:11:21.330Z,9.00
2023-03-18T09:16:25.070Z,8.90
2023-03-18T09:21:30.401Z,8.77
2023-03-18T09:26:34.047Z,8.69
2023-03-18T09:31:37.978Z,8.66
2023-03-18T09:36:43.296Z,8.57
2023-03-18T09:42:03.416Z,8.61
2023-03-18T09:47:25.057Z,8.62
2023-03-18T09:52:35.387Z,8.63
2023-03-18T09:57:43.706Z,8.51
2023-03-18T10:02:51.537Z,8.48
2023-03-18T10:08:01.243Z,8.43
2023-03-18T10:13:15.790Z,8.44
2023-03-18T10:18:26.009Z,8.32
2023-03-18T10:23:45.341Z,8.25
2023-03-18T10:29:19.318Z,8.27
2023-03-18T10:34:26.630Z,8.18
2023-03-18T10:39:33.067Z,8.19
2023-03-18T10:44:42.333Z,8.24
2023-03-18T10:49:51.161Z,8.17
2023-03-18T10:54:56.456Z,8.08
2023-03-18T11:00:00.409Z,8.17
2023-03-18T11:05:16.740Z,8.19
2023-03-18T11:10:27.075Z,8.17
2023-03-18T11:15:36.837Z,8.10
2023-03-18T11:20:43.279Z,8.11
2023-03-18T11:25:55.999Z,8.09
2023-03-18T11:31:05.932Z,7.94
2023-03-18T11:36:14.590Z,7.92
2023-03-18T11:41:24.973Z,7.95
2023-03-18T11:46:31.856Z,7.90
2023-03-18T11:51:55.649Z,7.91
2023-03-18T11:57:09.172Z,7.77
2023-03-18T12:02:46.533Z,7.77
2023-03-18T12:08:03.888Z,7.68
2023-03-18T12:13:31.195Z,7.73
2023-03-18T12:18:46.989Z,7.58
2023-03-18T12:24:01.658Z,7.57
2023-03-18T12:29:37.056Z,7.55
2023-03-18T12:34:54.639Z,7.59
2023-03-18T12:40:25.744Z,7.50
2023-03-18T12:45:36.428Z,7.56
2023-03-18T12:50:43.368Z,7.50
2023-03-18T12:55:48.833Z,7.49
2023-03-18T13:00:59.864Z,7.50
2023-03-18T13:06:09.579Z,7.44
2023-03-18T13:11:25.470Z,7.54
2023-03-18T13:16:33.427Z,7.41
2023-03-18T13:21:41.769Z,7.42
2023-03-18T13:26:59.797Z,7.27
2023-03-18T13:32:22.697Z,7.19
2023-03-18T13:37:51.478Z,7.22
2023-03-18T13:42:59.840Z,7.15
2023-03-18T13:48:10.196Z,7.24
2023-03-18T13:53:25.817Z,7.19
2023-03-18T13:58:30.447Z,7.13
2023-03-18T14:03:57.001Z,6.97
2023-03-18T14:09:21.525Z,6.91
2023-03-18T14:14:56.985Z,6.95
2023-03-18T14:20:07.527Z,6.92
2023-03-18T14:25:24.008Z,6.93
2023-03-18T14:30:49.314Z,6.85
2023-03-18T14:35:59.138Z,6.96
2023-03-18T14:41:05.579Z,7.17
2023-03-18T14:46:15.826Z,7.29
2023-03-18T14:51:23.769Z,7.55
2023-03-18T14:56:31.402Z,7.73
2023-03-18T15:01:38.407Z,8.09
2023-03-18T15:06:44.465Z,8.46
2023-03-18T15:11:48.136Z,8.80
2023-03-18T15:16:53.389Z,9.13
2023-03-18T15:22:03.411Z,9.51
2023-03-18T15:27:13.533Z,10.04
2023-03-18T15:32:20.883Z,10.54
2023-03-18T15:37:38.389Z,11.15
2023-03-18T15:42:43.737Z,11.83
2023-03-18T15:47:47.770Z,12.43
2023-03-18T15:53:04.358Z,12.66
2023-03-18T15:58:21.903Z,12.97
2023-03-18T16:03:28.049Z,12.72
2023-03-18T16:08:32.649Z,12.70
2023-03-18T16:13:37.591Z,12.81
2023-03-18T16:18:41.241Z,13.22
2023-03-18T16:23:46.539Z,13.67
2023-03-18T16:28:50.161Z,13.87
2023-03-18T16:33:53.939Z,13.75
2023-03-18T16:38:59.204Z,13.88
2023-03-18T16:44:02.840Z,14.07
2023-03-18T16:49:06.494Z,14.40
2023-03-18T16:54:21.774Z,14.69
2023-03-18T16:59:29.772Z,14.89
2023-03-18T17:04:34.830Z,15.08
2023-03-18T17:09:40.249Z,15.09
2023-03-18T17:14:48.716Z,15.19
2023-03-18T17:19:52.375Z,15.26
2023-03-18T17:24:58.105Z,15.46
2023-03-18T17:30:01.795Z,15.74
2023-03-18T17:35:14.790Z,15.92
2023-03-18T17:40:21.602Z,16.03
2023-03-18T17:45:29.012Z,16.31
2023-03-18T17:50:32.708Z,16.42
2023-03-18T17:55:37.992Z,16.36
2023-03-18T18:00:41.650Z,16.47
2023-03-18T18:05:45.308Z,16.47
2023-03-18T18:10:51.311Z,16.41
2023-03-18T18:15:55.008Z,16.50
2023-03-18T18:21:00.289Z,16.65
2023-03-18T18:26:07.472Z,16.85
2023-03-18T18:31:12.636Z,16.86
2023-03-18T18:36:16.529Z,17.02
2023-03-18T18:41:21.811Z,16.98
2023-03-18T18:46:25.812Z,17.10
2023-03-18T18:51:29.626Z,17.17
2023-03-18T18:56:36.732Z,17.21
2023-03-18T19:01:40.361Z,17.12
2023-03-18T19:06:44.258Z,17.32
2023-03-18T19:11:49.629Z,17.46
2023-03-18T19:16:54.294Z,17.52
2023-03-18T19:21:57.935Z,17.49
2023-03-18T19:27:05.219Z,17.53
2023-03-18T19:32:15.165Z,17.63
2023-03-18T19:37:19.886Z,17.74
2023-03-18T19:42:25.994Z,17.63
2023-03-18T19:47:30.974Z,17.60
2023-03-18T19:52:34.782Z,17.72
2023-03-18T19:57:40.254Z,17.67
2023-03-18T20:02:43.879Z,17.78
2023-03-18T20:07:47.613Z,17.76
2023-03-18T20:12:53.742Z,17.67
2023-03-18T20:17:58.100Z,17.70
2023-03-18T20:23:03.685Z,17.68
2023-03-18T20:28:11.452Z,17.71
2023-03-18T20:33:15.181Z,17.80
2023-03-18T20:38:25.363Z,17.84
2023-03-18T20:43:31.194Z,17.77
2023-03-18T20:48:34.840Z,17.68
2023-03-18T20:53:38.496Z,17.67
2023-03-18T20:58:44.770Z,17.70
2023-03-18T21:03:48.412Z,17.69
2023-03-18T21:08:52.050Z,17.73
2023-03-18T21:13:57.648Z,17.73
2023-03-18T21:19:01.337Z,17.67
2023-03-18T21:24:19.543Z,17.72
2023-03-18T21:29:24.893Z,17.76
2023-03-18T21:34:28.582Z,17.71
2023-03-18T21:39:32.220Z,17.87
2023-03-18T21:44:37.489Z,17.96
2023-03-18T21:49:41.166Z,18.06
2023-03-18T21:54:45.156Z,17.94
2023-03-18T21:59:51.658Z,18.01
2023-03-18T22:04:55.914Z,17.98
2023-03-18T22:09:59.909Z,18.16
2023-03-18T22:15:26.821Z,18.17
2023-03-18T22:20:30.974Z,18.16
2023-03-18T22:25:36.195Z,18.28
2023-03-18T22:30:43.159Z,18.44
2023-03-18T22:35:46.859Z,18.48
2023-03-18T22:40:52.968Z,18.29
2023-03-18T22:45:58.456Z,18.22
2023-03-18T22:51:02.724Z,18.04
2023-03-18T22:56:09.692Z,17.86
2023-03-18T23:01:16.365Z,17.89
2023-03-18T23:06:22.386Z,17.89
2023-03-18T23:11:26.054Z,17.83
2023-03-18T23:16:31.388Z,17.87
2023-03-18T23:21:35.058Z,18.04
2023-03-18T23:26:38.686Z,18.17
2023-03-18T23:31:44.037Z,18.41
2023-03-18T23:36:47.662Z,18.41
2023-03-18T23:41:51.281Z,18.50
2023-03-18T23:46:56.558Z,18.57
2023-03-18T23:52:00.351Z,18.59
2023-03-18T23:57:04.712Z,18.59
